WXM80 ListenWXM80 Stop

You find our weather info also at:

UK Metoffice

WeatherCloud

Weather Underground

Northeastern Weather Network

AWEKAS

Citizen Weather Observer Program (CWOP)

HAMweather, WeatherForYou, PWS Weather


Weather Underground History page Text

Daily Summary for December 07, 2017 Units:  Both    English   Metric
« Previous Day
Next Day »
Daily Weekly Monthly Yearly Custom
  High: Low: Average:
Temperature: 46.1 °F /  7.8 °C 37.8 °F /  3.2 °C 41 °F /  5 °C
Dew Point: 30.0 °F /  -1.1 °C 22.3 °F /  -5.4 °C 26.1 °F /  -3.3 °C
Humidity: 68 % 40 % 56 %
Wind Speed: 12.3 mph /  19.8 km/h - 4.2 mph /  6.8 km/h
Wind Gust: 20.0 mph /  32.2 km/h - -
Wind:- - WSW
Pressure: 30.03 in /  1016.8 hPa 29.80 in /  1009 hPa -
Precipitation: 0.00 in /  0 mm    
Historical Graphs
 
 
Tabular Data for December 07, 2017
Time Temperature Dew Point Pressure Wind Wind Speed Wind Gust Humidity Rainfall Rate (Hourly)
00:03 39.3 °F /  4.1 °C 25.3 °F /  -3.7 °C 29.98 in /  1015.1 hPa WSW 2.3 mph /  3.7 km/h 6.9 mph /  11.1 km/h 57 % 0.00 in /  0 mm
00:08 39.3 °F /  4.1 °C 25.3 °F /  -3.7 °C 29.99 in /  1015.5 hPa WSW 2.3 mph /  3.7 km/h 3.5 mph /  5.6 km/h 57 % 0.00 in /  0 mm
00:13 39.2 °F /  4 °C 25.2 °F /  -3.8 °C 29.98 in /  1015.1 hPa SW 3.4 mph /  5.5 km/h 5.0 mph /  8 km/h 57 % 0.00 in /  0 mm
00:18 39.2 °F /  4 °C 24.8 °F /  -4 °C 29.99 in /  1015.5 hPa SW 4.3 mph /  6.9 km/h 10.4 mph /  16.7 km/h 56 % 0.00 in /  0 mm
00:23 39.2 °F /  4 °C 25.2 °F /  -3.8 °C 29.98 in /  1015.1 hPa SW 1.3 mph /  2.1 km/h 5.0 mph /  8 km/h 57 % 0.00 in /  0 mm
00:28 39.2 °F /  4 °C 25.2 °F /  -3.8 °C 29.99 in /  1015.5 hPa SW 2.9 mph /  4.7 km/h 6.9 mph /  11.1 km/h 57 % 0.00 in /  0 mm
00:33 39.2 °F /  4 °C 25.2 °F /  -3.8 °C 29.98 in /  1015.1 hPa SSW 1.0 mph /  1.6 km/h 4.6 mph /  7.4 km/h 57 % 0.00 in /  0 mm
00:38 39.2 °F /  4 °C 25.2 °F /  -3.8 °C 29.99 in /  1015.5 hPa SW 3.5 mph /  5.6 km/h 4.6 mph /  7.4 km/h 57 % 0.00 in /  0 mm
00:44 39.2 °F /  4 °C 25.6 °F /  -3.6 °C 29.99 in /  1015.5 hPa SW 4.8 mph /  7.7 km/h 6.9 mph /  11.1 km/h 58 % 0.00 in /  0 mm
00:49 39.1 °F /  3.9 °C 25.6 °F /  -3.6 °C 29.99 in /  1015.5 hPa SSW 1.5 mph /  2.4 km/h 5.8 mph /  9.3 km/h 58 % 0.00 in /  0 mm
00:54 39.1 °F /  3.9 °C 25.6 °F /  -3.6 °C 29.99 in /  1015.5 hPa South 3.8 mph /  6.1 km/h 11.5 mph /  18.5 km/h 58 % 0.00 in /  0 mm
00:59 39.1 °F /  3.9 °C 25.6 °F /  -3.6 °C 29.98 in /  1015.1 hPa SW 2.5 mph /  4 km/h 5.0 mph /  8 km/h 58 % 0.00 in /  0 mm
01:04 39.1 °F /  3.9 °C 25.6 °F /  -3.6 °C 29.98 in /  1015.1 hPa SSW 1.3 mph /  2.1 km/h 3.5 mph /  5.6 km/h 58 % 0.00 in /  0 mm
01:09 39.1 °F /  3.9 °C 25.6 °F /  -3.6 °C 29.98 in /  1015.1 hPa South 2.7 mph /  4.3 km/h 5.0 mph /  8 km/h 58 % 0.00 in /  0 mm
01:14 39.2 °F /  4 °C 25.6 °F /  -3.6 °C 29.98 in /  1015.1 hPa South 6.4 mph /  10.3 km/h 9.2 mph /  14.8 km/h 58 % 0.00 in /  0 mm
01:19 39.3 °F /  4.1 °C 25.3 °F /  -3.7 °C 29.98 in /  1015.1 hPa SSW 5.2 mph /  8.4 km/h 8.1 mph /  13 km/h 57 % 0.00 in /  0 mm
01:24 39.3 °F /  4.1 °C 25.3 °F /  -3.7 °C 29.98 in /  1015.1 hPa SSW 4.3 mph /  6.9 km/h 7.0 mph /  11.3 km/h 57 % 0.00 in /  0 mm
01:29 39.4 °F /  4.1 °C 25.4 °F /  -3.7 °C 29.98 in /  1015.1 hPa SSW 2.1 mph /  3.4 km/h 6.9 mph /  11.1 km/h 57 % 0.00 in /  0 mm
01:34 39.5 °F /  4.2 °C 25.9 °F /  -3.4 °C 29.98 in /  1015.1 hPa SW 1.3 mph /  2.1 km/h 3.5 mph /  5.6 km/h 58 % 0.00 in /  0 mm
01:39 39.5 °F /  4.2 °C 25.9 °F /  -3.4 °C 29.98 in /  1015.1 hPa South 3.6 mph /  5.8 km/h 9.2 mph /  14.8 km/h 58 % 0.00 in /  0 mm
01:44 39.5 °F /  4.2 °C 25.5 °F /  -3.6 °C 29.98 in /  1015.1 hPa SW 2.5 mph /  4 km/h 3.5 mph /  5.6 km/h 57 % 0.00 in /  0 mm
01:49 39.5 °F /  4.2 °C 25.9 °F /  -3.4 °C 29.98 in /  1015.1 hPa SW 2.3 mph /  3.7 km/h 5.0 mph /  8 km/h 58 % 0.00 in /  0 mm
01:54 39.5 °F /  4.2 °C 25.9 °F /  -3.4 °C 29.98 in /  1015.1 hPa SSW 3.5 mph /  5.6 km/h 6.0 mph /  9.7 km/h 58 % 0.00 in /  0 mm
01:59 39.5 °F /  4.2 °C 25.9 °F /  -3.4 °C 29.98 in /  1015.1 hPa SW 3.7 mph /  6 km/h 5.8 mph /  9.3 km/h 58 % 0.00 in /  0 mm
02:05 39.5 °F /  4.2 °C 25.9 °F /  -3.4 °C 29.98 in /  1015.1 hPa WSW 1.9 mph /  3.1 km/h 3.5 mph /  5.6 km/h 58 % 0.00 in /  0 mm
02:10 39.5 °F /  4.2 °C 25.9 °F /  -3.4 °C 29.98 in /  1015.1 hPa SSW 1.8 mph /  2.9 km/h 3.5 mph /  5.6 km/h 58 % 0.00 in /  0 mm
02:15 39.5 °F /  4.2 °C 25.9 °F /  -3.4 °C 29.98 in /  1015.1 hPa SW 0.8 mph /  1.3 km/h 3.5 mph /  5.6 km/h 58 % 0.00 in /  0 mm
02:20 39.5 °F /  4.2 °C 25.9 °F /  -3.4 °C 29.98 in /  1015.1 hPa SW 3.5 mph /  5.6 km/h 5.8 mph /  9.3 km/h 58 % 0.00 in /  0 mm
02:25 39.4 °F /  4.1 °C 25.8 °F /  -3.4 °C 29.98 in /  1015.1 hPa SW 2.0 mph /  3.2 km/h 6.9 mph /  11.1 km/h 58 % 0.00 in /  0 mm
02:30 39.4 °F /  4.1 °C 26.2 °F /  -3.2 °C 29.98 in /  1015.1 hPa SW 2.5 mph /  4 km/h 7.0 mph /  11.3 km/h 59 % 0.00 in /  0 mm
02:35 39.4 °F /  4.1 °C 25.8 °F /  -3.4 °C 29.98 in /  1015.1 hPa WSW 4.2 mph /  6.8 km/h 9.2 mph /  14.8 km/h 58 % 0.00 in /  0 mm
02:40 39.4 °F /  4.1 °C 25.8 °F /  -3.4 °C 29.98 in /  1015.1 hPa SW 2.5 mph /  4 km/h 4.6 mph /  7.4 km/h 58 % 0.00 in /  0 mm
02:45 39.5 °F /  4.2 °C 25.9 °F /  -3.4 °C 29.97 in /  1014.8 hPa SSW 2.8 mph /  4.5 km/h 4.6 mph /  7.4 km/h 58 % 0.00 in /  0 mm
02:50 39.4 °F /  4.1 °C 26.2 °F /  -3.2 °C 29.97 in /  1014.8 hPa WSW 1.1 mph /  1.8 km/h 7.0 mph /  11.3 km/h 59 % 0.00 in /  0 mm
02:55 39.4 °F /  4.1 °C 26.2 °F /  -3.2 °C 29.97 in /  1014.8 hPa WSW 4.1 mph /  6.6 km/h 5.8 mph /  9.3 km/h 59 % 0.00 in /  0 mm
03:00 39.4 °F /  4.1 °C 26.2 °F /  -3.2 °C 29.97 in /  1014.8 hPa SW 1.4 mph /  2.3 km/h 6.9 mph /  11.1 km/h 59 % 0.00 in /  0 mm
03:05 39.4 °F /  4.1 °C 26.2 °F /  -3.2 °C 29.98 in /  1015.1 hPa SSW 4.2 mph /  6.8 km/h 6.9 mph /  11.1 km/h 59 % 0.00 in /  0 mm
03:10 39.4 °F /  4.1 °C 26.2 °F /  -3.2 °C 29.97 in /  1014.8 hPa SW 3.9 mph /  6.3 km/h 5.8 mph /  9.3 km/h 59 % 0.00 in /  0 mm
03:15 39.5 °F /  4.2 °C 26.8 °F /  -2.9 °C 29.97 in /  1014.8 hPa SW 4.6 mph /  7.4 km/h 10.0 mph /  16.1 km/h 60 % 0.00 in /  0 mm
03:20 39.6 °F /  4.2 °C 26.8 °F /  -2.9 °C 29.97 in /  1014.8 hPa SW 4.8 mph /  7.7 km/h 11.5 mph /  18.5 km/h 60 % 0.00 in /  0 mm
03:26 39.6 °F /  4.2 °C 26.8 °F /  -2.9 °C 29.97 in /  1014.8 hPa SSW 3.3 mph /  5.3 km/h 9.0 mph /  14.5 km/h 60 % 0.00 in /  0 mm
03:31 39.7 °F /  4.3 °C 26.9 °F /  -2.8 °C 29.97 in /  1014.8 hPa SW 1.9 mph /  3.1 km/h 5.8 mph /  9.3 km/h 60 % 0.00 in /  0 mm
03:36 39.7 °F /  4.3 °C 26.9 °F /  -2.8 °C 29.97 in /  1014.8 hPa WSW 2.0 mph /  3.2 km/h 9.0 mph /  14.5 km/h 60 % 0.00 in /  0 mm
03:38 39.7 °F /  4.3 °C 26.9 °F /  -2.8 °C 29.97 in /  1014.8 hPa WSW 3.3 mph /  5.3 km/h 9.2 mph /  14.8 km/h 60 % 0.00 in /  0 mm
03:43 39.7 °F /  4.3 °C 26.9 °F /  -2.8 °C 29.97 in /  1014.8 hPa SW 4.1 mph /  6.6 km/h 9.2 mph /  14.8 km/h 60 % 0.00 in /  0 mm
03:48 39.7 °F /  4.3 °C 26.9 °F /  -2.8 °C 29.97 in /  1014.8 hPa SW 0.4 mph /  0.6 km/h 3.5 mph /  5.6 km/h 60 % 0.00 in /  0 mm
03:53 39.7 °F /  4.3 °C 26.9 °F /  -2.8 °C 29.97 in /  1014.8 hPa WSW 3.8 mph /  6.1 km/h 8.1 mph /  13 km/h 60 % 0.00 in /  0 mm
03:58 39.7 °F /  4.3 °C 26.9 °F /  -2.8 °C 29.97 in /  1014.8 hPa WSW 6.5 mph /  10.5 km/h 10.4 mph /  16.7 km/h 60 % 0.00 in /  0 mm
04:03 39.7 °F /  4.3 °C 26.9 °F /  -2.8 °C 29.97 in /  1014.8 hPa WSW 5.0 mph /  8 km/h 10.4 mph /  16.7 km/h 60 % 0.00 in /  0 mm
04:08 39.7 °F /  4.3 °C 26.9 °F /  -2.8 °C 29.97 in /  1014.8 hPa SW 2.3 mph /  3.7 km/h 8.0 mph /  12.9 km/h 60 % 0.00 in /  0 mm
04:13 39.7 °F /  4.3 °C 26.9 °F /  -2.8 °C 29.96 in /  1014.4 hPa West 5.6 mph /  9 km/h 6.9 mph /  11.1 km/h 60 % 0.00 in /  0 mm
04:18 39.7 °F /  4.3 °C 26.9 °F /  -2.8 °C 29.96 in /  1014.4 hPa West 6.3 mph /  10.1 km/h 10.4 mph /  16.7 km/h 60 % 0.00 in /  0 mm
04:23 39.7 °F /  4.3 °C 26.9 °F /  -2.8 °C 29.96 in /  1014.4 hPa South 2.5 mph /  4 km/h 5.8 mph /  9.3 km/h 60 % 0.00 in /  0 mm
04:28 39.6 °F /  4.2 °C 27.2 °F /  -2.7 °C 29.96 in /  1014.4 hPa SSW 3.1 mph /  5 km/h 6.9 mph /  11.1 km/h 61 % 0.00 in /  0 mm
04:33 39.6 °F /  4.2 °C 27.2 °F /  -2.7 °C 29.96 in /  1014.4 hPa WSW 2.7 mph /  4.3 km/h 4.6 mph /  7.4 km/h 61 % 0.00 in /  0 mm
04:38 39.6 °F /  4.2 °C 27.2 °F /  -2.7 °C 29.96 in /  1014.4 hPa WSW 2.9 mph /  4.7 km/h 8.1 mph /  13 km/h 61 % 0.00 in /  0 mm
04:39 39.6 °F /  4.2 °C 27.2 °F /  -2.7 °C 29.96 in /  1014.4 hPa WSW 1.8 mph /  2.9 km/h 3.5 mph /  5.6 km/h 61 % 0.00 in /  0 mm
04:44 39.5 °F /  4.2 °C 27.5 °F /  -2.5 °C 29.96 in /  1014.4 hPa SW 4.5 mph /  7.2 km/h 8.1 mph /  13 km/h 62 % 0.00 in /  0 mm
04:49 39.5 °F /  4.2 °C 27.5 °F /  -2.5 °C 29.96 in /  1014.4 hPa WSW 1.2 mph /  1.9 km/h 4.6 mph /  7.4 km/h 62 % 0.00 in /  0 mm
04:54 39.4 °F /  4.1 °C 27.8 °F /  -2.3 °C 29.96 in /  1014.4 hPa WSW 3.2 mph /  5.1 km/h 6.9 mph /  11.1 km/h 63 % 0.00 in /  0 mm
04:59 39.4 °F /  4.1 °C 27.8 °F /  -2.3 °C 29.96 in /  1014.4 hPa WSW 4.5 mph /  7.2 km/h 8.0 mph /  12.9 km/h 63 % 0.00 in /  0 mm
05:04 39.3 °F /  4.1 °C 28.1 °F /  -2.2 °C 29.96 in /  1014.4 hPa WSW 4.8 mph /  7.7 km/h 8.1 mph /  13 km/h 64 % 0.00 in /  0 mm
05:09 39.3 °F /  4.1 °C 28.1 °F /  -2.2 °C 29.97 in /  1014.8 hPa West 2.8 mph /  4.5 km/h 8.1 mph /  13 km/h 64 % 0.00 in /  0 mm
05:14 39.3 °F /  4.1 °C 28.1 °F /  -2.2 °C 29.97 in /  1014.8 hPa WSW 4.2 mph /  6.8 km/h 7.0 mph /  11.3 km/h 64 % 0.00 in /  0 mm
05:19 39.3 °F /  4.1 °C 28.1 °F /  -2.2 °C 29.97 in /  1014.8 hPa SW 3.9 mph /  6.3 km/h 9.2 mph /  14.8 km/h 64 % 0.00 in /  0 mm
05:24 39.3 °F /  4.1 °C 28.1 °F /  -2.2 °C 29.97 in /  1014.8 hPa SW 4.8 mph /  7.7 km/h 11.5 mph /  18.5 km/h 64 % 0.00 in /  0 mm
05:29 39.3 °F /  4.1 °C 28.1 °F /  -2.2 °C 29.97 in /  1014.8 hPa SSW 1.0 mph /  1.6 km/h 10.4 mph /  16.7 km/h 64 % 0.00 in /  0 mm
05:34 39.3 °F /  4.1 °C 28.1 °F /  -2.2 °C 29.97 in /  1014.8 hPa SW 3.0 mph /  4.8 km/h 6.9 mph /  11.1 km/h 64 % 0.00 in /  0 mm
05:39 39.3 °F /  4.1 °C 28.1 °F /  -2.2 °C 29.97 in /  1014.8 hPa SSW 3.5 mph /  5.6 km/h 6.9 mph /  11.1 km/h 64 % 0.00 in /  0 mm
05:44 39.2 °F /  4 °C 27.7 °F /  -2.4 °C 29.97 in /  1014.8 hPa SSW 1.1 mph /  1.8 km/h 3.5 mph /  5.6 km/h 63 % 0.00 in /  0 mm
05:50 39.2 °F /  4 °C 27.7 °F /  -2.4 °C 29.98 in /  1015.1 hPa SW 1.4 mph /  2.3 km/h 4.6 mph /  7.4 km/h 63 % 0.00 in /  0 mm
05:55 39.0 °F /  3.9 °C 27.5 °F /  -2.5 °C 29.98 in /  1015.1 hPa SW 4.6 mph /  7.4 km/h 8.1 mph /  13 km/h 63 % 0.00 in /  0 mm
06:00 39.0 °F /  3.9 °C 27.5 °F /  -2.5 °C 29.98 in /  1015.1 hPa SW 1.9 mph /  3.1 km/h 6.9 mph /  11.1 km/h 63 % 0.00 in /  0 mm
06:05 38.9 °F /  3.8 °C 27.4 °F /  -2.6 °C 29.98 in /  1015.1 hPa SW 4.1 mph /  6.6 km/h 8.1 mph /  13 km/h 63 % 0.00 in /  0 mm
06:10 38.8 °F /  3.8 °C 27.7 °F /  -2.4 °C 29.98 in /  1015.1 hPa SW 4.6 mph /  7.4 km/h 6.9 mph /  11.1 km/h 64 % 0.00 in /  0 mm
06:15 38.7 °F /  3.7 °C 27.6 °F /  -2.4 °C 29.98 in /  1015.1 hPa SW 2.6 mph /  4.2 km/h 6.0 mph /  9.7 km/h 64 % 0.00 in /  0 mm
06:20 38.7 °F /  3.7 °C 27.6 °F /  -2.4 °C 29.99 in /  1015.5 hPa West 3.5 mph /  5.6 km/h 5.8 mph /  9.3 km/h 64 % 0.00 in /  0 mm
06:25 38.6 °F /  3.7 °C 27.5 °F /  -2.5 °C 29.99 in /  1015.5 hPa SSW 3.2 mph /  5.1 km/h 6.9 mph /  11.1 km/h 64 % 0.00 in /  0 mm
06:30 38.6 °F /  3.7 °C 27.5 °F /  -2.5 °C 29.99 in /  1015.5 hPa WSW 3.3 mph /  5.3 km/h 6.9 mph /  11.1 km/h 64 % 0.00 in /  0 mm
06:35 38.5 °F /  3.6 °C 27.7 °F /  -2.4 °C 29.99 in /  1015.5 hPa WSW 3.9 mph /  6.3 km/h 8.1 mph /  13 km/h 65 % 0.00 in /  0 mm
06:40 38.4 °F /  3.6 °C 27.7 °F /  -2.4 °C 29.99 in /  1015.5 hPa SW 2.0 mph /  3.2 km/h 4.6 mph /  7.4 km/h 65 % 0.00 in /  0 mm
06:45 38.4 °F /  3.6 °C 27.7 °F /  -2.4 °C 29.99 in /  1015.5 hPa SW 2.4 mph /  3.9 km/h 4.6 mph /  7.4 km/h 65 % 0.00 in /  0 mm
06:50 38.3 °F /  3.5 °C 27.6 °F /  -2.4 °C 29.99 in /  1015.5 hPa SW 2.5 mph /  4 km/h 4.0 mph /  6.4 km/h 65 % 0.00 in /  0 mm
06:55 38.2 °F /  3.4 °C 27.5 °F /  -2.5 °C 29.99 in /  1015.5 hPa WSW 2.6 mph /  4.2 km/h 4.6 mph /  7.4 km/h 65 % 0.00 in /  0 mm
07:00 38.2 °F /  3.4 °C 27.8 °F /  -2.3 °C 30.00 in /  1015.8 hPa SW 4.4 mph /  7.1 km/h 8.1 mph /  13 km/h 66 % 0.00 in /  0 mm
07:05 38.1 °F /  3.4 °C 27.7 °F /  -2.4 °C 30.00 in /  1015.8 hPa WSW 2.2 mph /  3.5 km/h 6.0 mph /  9.7 km/h 66 % 0.00 in /  0 mm
07:10 38.0 °F /  3.3 °C 27.6 °F /  -2.4 °C 30.00 in /  1015.8 hPa WSW 2.2 mph /  3.5 km/h 2.2 mph /  3.5 km/h 66 % 0.00 in /  0 mm
07:15 38.0 °F /  3.3 °C 28.0 °F /  -2.2 °C 30.00 in /  1015.8 hPa SW 3.7 mph /  6 km/h 6.0 mph /  9.7 km/h 67 % 0.00 in /  0 mm
07:20 37.9 °F /  3.3 °C 27.9 °F /  -2.3 °C 30.00 in /  1015.8 hPa SW 1.7 mph /  2.7 km/h 3.5 mph /  5.6 km/h 67 % 0.00 in /  0 mm
07:25 37.9 °F /  3.3 °C 27.9 °F /  -2.3 °C 30.00 in /  1015.8 hPa SW 4.1 mph /  6.6 km/h 6.0 mph /  9.7 km/h 67 % 0.00 in /  0 mm
07:31 37.8 °F /  3.2 °C 27.8 °F /  -2.3 °C 30.00 in /  1015.8 hPa SW 2.0 mph /  3.2 km/h 7.0 mph /  11.3 km/h 67 % 0.00 in /  0 mm
07:36 37.8 °F /  3.2 °C 27.8 °F /  -2.3 °C 30.00 in /  1015.8 hPa SW 3.0 mph /  4.8 km/h 8.0 mph /  12.9 km/h 67 % 0.00 in /  0 mm
07:41 37.8 °F /  3.2 °C 28.2 °F /  -2.1 °C 30.01 in /  1016.1 hPa SW 3.0 mph /  4.8 km/h 8.0 mph /  12.9 km/h 68 % 0.00 in /  0 mm
07:46 37.8 °F /  3.2 °C 28.2 °F /  -2.1 °C 30.01 in /  1016.1 hPa SW 1.0 mph /  1.6 km/h 4.0 mph /  6.4 km/h 68 % 0.00 in /  0 mm
07:51 37.8 °F /  3.2 °C 28.2 °F /  -2.1 °C 30.01 in /  1016.1 hPa SW 5.0 mph /  8 km/h 7.0 mph /  11.3 km/h 68 % 0.00 in /  0 mm
08:01 37.9 °F /  3.3 °C 28.3 °F /  -2.1 °C 30.01 in /  1016.1 hPa SSW 3.2 mph /  5.1 km/h 5.0 mph /  8 km/h 68 % 0.00 in /  0 mm
08:06 38.0 °F /  3.3 °C 28.4 °F /  -2 °C 30.01 in /  1016.1 hPa WSW 2.0 mph /  3.2 km/h 9.0 mph /  14.5 km/h 68 % 0.00 in /  0 mm
08:11 38.2 °F /  3.4 °C 28.5 °F /  -1.9 °C 30.01 in /  1016.1 hPa West 1.0 mph /  1.6 km/h 8.0 mph /  12.9 km/h 68 % 0.00 in /  0 mm
08:26 38.8 °F /  3.8 °C 29.2 °F /  -1.6 °C 30.01 in /  1016.1 hPa WSW 3.0 mph /  4.8 km/h 7.0 mph /  11.3 km/h 68 % 0.00 in /  0 mm
08:28 39.0 °F /  3.9 °C 29.3 °F /  -1.5 °C 30.01 in /  1016.1 hPa West 4.0 mph /  6.4 km/h 8.1 mph /  13 km/h 68 % 0.00 in /  0 mm
08:33 39.3 °F /  4.1 °C 29.6 °F /  -1.3 °C 30.01 in /  1016.1 hPa WNW 1.9 mph /  3.1 km/h 4.6 mph /  7.4 km/h 68 % 0.00 in /  0 mm
08:38 39.6 °F /  4.2 °C 29.5 °F /  -1.4 °C 30.01 in /  1016.1 hPa WSW 4.0 mph /  6.4 km/h 12.0 mph /  19.3 km/h 67 % 0.00 in /  0 mm
08:43 39.9 °F /  4.4 °C 29.8 °F /  -1.2 °C 30.01 in /  1016.1 hPa WSW 3.3 mph /  5.3 km/h 8.1 mph /  13 km/h 67 % 0.00 in /  0 mm
08:48 40.2 °F /  4.6 °C 29.4 °F /  -1.4 °C 30.02 in /  1016.5 hPa WSW 6.5 mph /  10.5 km/h 11.5 mph /  18.5 km/h 65 % 0.00 in /  0 mm
08:53 40.4 °F /  4.7 °C 29.2 °F /  -1.6 °C 30.01 in /  1016.1 hPa WSW 5.8 mph /  9.3 km/h 11.5 mph /  18.5 km/h 64 % 0.00 in /  0 mm
08:58 40.6 °F /  4.8 °C 29.0 °F /  -1.7 °C 30.01 in /  1016.1 hPa WSW 6.6 mph /  10.6 km/h 8.0 mph /  12.9 km/h 63 % 0.00 in /  0 mm
09:03 40.8 °F /  4.9 °C 29.2 °F /  -1.6 °C 30.01 in /  1016.1 hPa WSW 8.1 mph /  13 km/h 13.0 mph /  20.9 km/h 63 % 0.00 in /  0 mm
09:08 41.0 °F /  5 °C 28.6 °F /  -1.9 °C 30.01 in /  1016.1 hPa West 6.3 mph /  10.1 km/h 11.5 mph /  18.5 km/h 61 % 0.00 in /  0 mm
09:13 41.1 °F /  5.1 °C 28.7 °F /  -1.8 °C 30.01 in /  1016.1 hPa West 7.2 mph /  11.6 km/h 9.0 mph /  14.5 km/h 61 % 0.00 in /  0 mm
09:18 41.3 °F /  5.2 °C 28.9 °F /  -1.7 °C 30.01 in /  1016.1 hPa West 4.1 mph /  6.6 km/h 10.4 mph /  16.7 km/h 61 % 0.00 in /  0 mm
09:23 41.6 °F /  5.3 °C 29.5 °F /  -1.4 °C 30.01 in /  1016.1 hPa WSW 7.5 mph /  12.1 km/h 11.5 mph /  18.5 km/h 62 % 0.00 in /  0 mm
09:28 41.9 °F /  5.5 °C 29.0 °F /  -1.7 °C 30.01 in /  1016.1 hPa WSW 5.5 mph /  8.9 km/h 11.5 mph /  18.5 km/h 60 % 0.00 in /  0 mm
09:33 42.1 °F /  5.6 °C 28.4 °F /  -2 °C 30.01 in /  1016.1 hPa West 6.5 mph /  10.5 km/h 10.4 mph /  16.7 km/h 58 % 0.00 in /  0 mm
09:38 42.4 °F /  5.8 °C 28.2 °F /  -2.1 °C 30.01 in /  1016.1 hPa West 9.0 mph /  14.5 km/h 13.8 mph /  22.2 km/h 57 % 0.00 in /  0 mm
09:44 42.6 °F /  5.9 °C 28.0 °F /  -2.2 °C 30.01 in /  1016.1 hPa SW 12.3 mph /  19.8 km/h 17.3 mph /  27.8 km/h 56 % 0.00 in /  0 mm
09:49 42.8 °F /  6 °C 27.7 °F /  -2.4 °C 30.01 in /  1016.1 hPa WSW 6.9 mph /  11.1 km/h 11.5 mph /  18.5 km/h 55 % 0.00 in /  0 mm
09:54 42.9 °F /  6.1 °C 27.8 °F /  -2.3 °C 30.01 in /  1016.1 hPa WSW 5.3 mph /  8.5 km/h 13.8 mph /  22.2 km/h 55 % 0.00 in /  0 mm
09:59 43.2 °F /  6.2 °C 27.7 °F /  -2.4 °C 30.02 in /  1016.5 hPa WNW 9.4 mph /  15.1 km/h 12.7 mph /  20.4 km/h 54 % 0.00 in /  0 mm
10:04 43.3 °F /  6.3 °C 27.8 °F /  -2.3 °C 30.02 in /  1016.5 hPa West 6.8 mph /  10.9 km/h 11.5 mph /  18.5 km/h 54 % 0.00 in /  0 mm
10:14 43.6 °F /  6.4 °C 28.5 °F /  -1.9 °C 30.02 in /  1016.5 hPa West 4.1 mph /  6.6 km/h 8.1 mph /  13 km/h 55 % 0.00 in /  0 mm
10:19 43.8 °F /  6.6 °C 28.2 °F /  -2.1 °C 30.02 in /  1016.5 hPa WSW 6.8 mph /  10.9 km/h 11.5 mph /  18.5 km/h 54 % 0.00 in /  0 mm
10:24 43.9 °F /  6.6 °C 27.9 °F /  -2.3 °C 30.01 in /  1016.1 hPa WNW 6.2 mph /  10 km/h 13.8 mph /  22.2 km/h 53 % 0.00 in /  0 mm
10:29 43.9 °F /  6.6 °C 27.4 °F /  -2.6 °C 30.01 in /  1016.1 hPa South 5.7 mph /  9.2 km/h 12.7 mph /  20.4 km/h 52 % 0.00 in /  0 mm
10:34 43.9 °F /  6.6 °C 26.0 °F /  -3.3 °C 30.01 in /  1016.1 hPa WSW 4.8 mph /  7.7 km/h 9.2 mph /  14.8 km/h 49 % 0.00 in /  0 mm
10:39 43.9 °F /  6.6 °C 26.4 °F /  -3.1 °C 30.01 in /  1016.1 hPa WSW 6.3 mph /  10.1 km/h 10.4 mph /  16.7 km/h 50 % 0.00 in /  0 mm
10:44 43.9 °F /  6.6 °C 26.4 °F /  -3.1 °C 30.01 in /  1016.1 hPa West 8.9 mph /  14.3 km/h 15.0 mph /  24.1 km/h 50 % 0.00 in /  0 mm
10:49 43.9 °F /  6.6 °C 26.4 °F /  -3.1 °C 30.01 in /  1016.1 hPa WSW 5.6 mph /  9 km/h 8.1 mph /  13 km/h 50 % 0.00 in /  0 mm
10:54 43.8 °F /  6.6 °C 25.4 °F /  -3.7 °C 30.00 in /  1015.8 hPa West 7.9 mph /  12.7 km/h 16.1 mph /  25.9 km/h 48 % 0.00 in /  0 mm
10:59 43.6 °F /  6.4 °C 25.7 °F /  -3.5 °C 30.00 in /  1015.8 hPa WSW 8.4 mph /  13.5 km/h 16.1 mph /  25.9 km/h 49 % 0.00 in /  0 mm
11:04 43.5 °F /  6.4 °C 26.1 °F /  -3.3 °C 30.00 in /  1015.8 hPa WSW 7.2 mph /  11.6 km/h 14.0 mph /  22.5 km/h 50 % 0.00 in /  0 mm
11:09 43.4 °F /  6.3 °C 26.0 °F /  -3.3 °C 30.00 in /  1015.8 hPa WSW 6.0 mph /  9.7 km/h 13.8 mph /  22.2 km/h 50 % 0.00 in /  0 mm
11:19 43.3 °F /  6.3 °C 26.4 °F /  -3.1 °C 29.99 in /  1015.5 hPa West 9.4 mph /  15.1 km/h 12.7 mph /  20.4 km/h 51 % 0.00 in /  0 mm
11:24 43.3 °F /  6.3 °C 26.4 °F /  -3.1 °C 29.99 in /  1015.5 hPa SW 5.8 mph /  9.3 km/h 9.2 mph /  14.8 km/h 51 % 0.00 in /  0 mm
11:29 43.3 °F /  6.3 °C 26.4 °F /  -3.1 °C 29.99 in /  1015.5 hPa WSW 4.5 mph /  7.2 km/h 10.0 mph /  16.1 km/h 51 % 0.00 in /  0 mm
11:34 43.3 °F /  6.3 °C 25.4 °F /  -3.7 °C 29.98 in /  1015.1 hPa WNW 4.6 mph /  7.4 km/h 6.9 mph /  11.1 km/h 49 % 0.00 in /  0 mm
11:39 43.3 °F /  6.3 °C 25.4 °F /  -3.7 °C 29.98 in /  1015.1 hPa WNW 5.4 mph /  8.7 km/h 9.2 mph /  14.8 km/h 49 % 0.00 in /  0 mm
11:44 43.3 °F /  6.3 °C 25.4 °F /  -3.7 °C 29.98 in /  1015.1 hPa WSW 2.9 mph /  4.7 km/h 8.1 mph /  13 km/h 49 % 0.00 in /  0 mm
11:49 43.3 °F /  6.3 °C 25.4 °F /  -3.7 °C 29.98 in /  1015.1 hPa WNW 5.7 mph /  9.2 km/h 16.1 mph /  25.9 km/h 49 % 0.00 in /  0 mm
11:54 43.4 °F /  6.3 °C 25.0 °F /  -3.9 °C 29.98 in /  1015.1 hPa NW 3.7 mph /  6 km/h 10.4 mph /  16.7 km/h 48 % 0.00 in /  0 mm
11:59 43.5 °F /  6.4 °C 24.6 °F /  -4.1 °C 29.98 in /  1015.1 hPa SW 8.6 mph /  13.8 km/h 10.4 mph /  16.7 km/h 47 % 0.00 in /  0 mm
12:04 43.6 °F /  6.4 °C 24.7 °F /  -4.1 °C 29.97 in /  1014.8 hPa SW 10.4 mph /  16.7 km/h 14.0 mph /  22.5 km/h 47 % 0.00 in /  0 mm
12:10 43.8 °F /  6.6 °C 24.9 °F /  -3.9 °C 29.97 in /  1014.8 hPa WSW 7.6 mph /  12.2 km/h 17.3 mph /  27.8 km/h 47 % 0.00 in /  0 mm
12:15 44.1 °F /  6.7 °C 25.1 °F /  -3.8 °C 29.97 in /  1014.8 hPa WSW 5.2 mph /  8.4 km/h 10.4 mph /  16.7 km/h 47 % 0.00 in /  0 mm
12:20 44.4 °F /  6.9 °C 23.8 °F /  -4.6 °C 29.97 in /  1014.8 hPa West 6.0 mph /  9.7 km/h 12.7 mph /  20.4 km/h 44 % 0.00 in /  0 mm
12:25 44.7 °F /  7.1 °C 24.1 °F /  -4.4 °C 29.96 in /  1014.4 hPa SW 4.8 mph /  7.7 km/h 12.7 mph /  20.4 km/h 44 % 0.00 in /  0 mm
12:30 44.9 °F /  7.2 °C 23.2 °F /  -4.9 °C 29.96 in /  1014.4 hPa SW 5.7 mph /  9.2 km/h 11.5 mph /  18.5 km/h 42 % 0.00 in /  0 mm
12:35 45.0 °F /  7.2 °C 23.8 °F /  -4.6 °C 29.96 in /  1014.4 hPa WSW 8.5 mph /  13.7 km/h 15.0 mph /  24.1 km/h 43 % 0.00 in /  0 mm
12:40 45.2 °F /  7.3 °C 23.4 °F /  -4.8 °C 29.96 in /  1014.4 hPa WSW 7.0 mph /  11.3 km/h 11.5 mph /  18.5 km/h 42 % 0.00 in /  0 mm
12:45 45.2 °F /  7.3 °C 22.3 °F /  -5.4 °C 29.96 in /  1014.4 hPa SW 9.6 mph /  15.4 km/h 17.3 mph /  27.8 km/h 40 % 0.00 in /  0 mm
12:47 45.2 °F /  7.3 °C 22.3 °F /  -5.4 °C 29.95 in /  1014.1 hPa NW 8.6 mph /  13.8 km/h 17.3 mph /  27.8 km/h 40 % 0.00 in /  0 mm
12:50 45.2 °F /  7.3 °C 22.9 °F /  -5.1 °C 29.95 in /  1014.1 hPa SW 10.1 mph /  16.3 km/h 13.0 mph /  20.9 km/h 41 % 0.00 in /  0 mm
13:00 45.1 °F /  7.3 °C 23.9 °F /  -4.5 °C 29.95 in /  1014.1 hPa West 4.6 mph /  7.4 km/h 11.5 mph /  18.5 km/h 43 % 0.00 in /  0 mm
13:05 45.2 °F /  7.3 °C 24.6 °F /  -4.1 °C 29.95 in /  1014.1 hPa WNW 3.5 mph /  5.6 km/h 5.8 mph /  9.3 km/h 44 % 0.00 in /  0 mm
13:20 45.5 °F /  7.5 °C 24.8 °F /  -4 °C 29.95 in /  1014.1 hPa WSW 3.0 mph /  4.8 km/h 17.0 mph /  27.4 km/h 44 % 0.00 in /  0 mm
13:26 45.6 °F /  7.6 °C 26.0 °F /  -3.3 °C 29.94 in /  1013.8 hPa West 8.0 mph /  12.9 km/h 17.0 mph /  27.4 km/h 46 % 0.00 in /  0 mm
13:31 45.7 °F /  7.6 °C 25.6 °F /  -3.6 °C 29.94 in /  1013.8 hPa West 5.0 mph /  8 km/h 18.0 mph /  29 km/h 45 % 0.00 in /  0 mm
13:45 46.0 °F /  7.8 °C 25.3 °F /  -3.7 °C 29.94 in /  1013.8 hPa WSW 7.6 mph /  12.2 km/h 15.0 mph /  24.1 km/h 44 % 0.00 in /  0 mm
13:56 46.1 °F /  7.8 °C 25.9 °F /  -3.4 °C 29.94 in /  1013.8 hPa WSW 9.0 mph /  14.5 km/h 20.0 mph /  32.2 km/h 45 % 0.00 in /  0 mm
14:06 45.9 °F /  7.7 °C 25.7 °F /  -3.5 °C 29.93 in /  1013.4 hPa West 8.4 mph /  13.5 km/h 13.0 mph /  20.9 km/h 45 % 0.00 in /  0 mm
14:16 45.5 °F /  7.5 °C 24.8 °F /  -4 °C 29.93 in /  1013.4 hPa WSW 4.4 mph /  7.1 km/h 12.7 mph /  20.4 km/h 44 % 0.00 in /  0 mm
14:21 45.3 °F /  7.4 °C 24.6 °F /  -4.1 °C 29.93 in /  1013.4 hPa WSW 4.6 mph /  7.4 km/h 10.0 mph /  16.1 km/h 44 % 0.00 in /  0 mm
14:26 45.1 °F /  7.3 °C 25.5 °F /  -3.6 °C 29.93 in /  1013.4 hPa WSW 4.3 mph /  6.9 km/h 6.9 mph /  11.1 km/h 46 % 0.00 in /  0 mm
14:31 44.9 °F /  7.2 °C 23.2 °F /  -4.9 °C 29.93 in /  1013.4 hPa WSW 6.4 mph /  10.3 km/h 11.5 mph /  18.5 km/h 42 % 0.00 in /  0 mm
14:41 44.5 °F /  6.9 °C 23.4 °F /  -4.8 °C 29.93 in /  1013.4 hPa SSW 6.7 mph /  10.8 km/h 19.6 mph /  31.5 km/h 43 % 0.00 in /  0 mm
14:46 44.4 °F /  6.9 °C 23.8 °F /  -4.6 °C 29.93 in /  1013.4 hPa SW 5.0 mph /  8 km/h 10.4 mph /  16.7 km/h 44 % 0.00 in /  0 mm
14:51 44.3 °F /  6.8 °C 24.3 °F /  -4.3 °C 29.93 in /  1013.4 hPa WSW 8.8 mph /  14.2 km/h 17.3 mph /  27.8 km/h 45 % 0.00 in /  0 mm
15:01 44.2 °F /  6.8 °C 23.6 °F /  -4.7 °C 29.94 in /  1013.8 hPa WSW 6.8 mph /  10.9 km/h 12.7 mph /  20.4 km/h 44 % 0.00 in /  0 mm
15:06 44.1 °F /  6.7 °C 24.1 °F /  -4.4 °C 29.94 in /  1013.8 hPa SW 9.3 mph /  15 km/h 12.0 mph /  19.3 km/h 45 % 0.00 in /  0 mm
15:11 44.0 °F /  6.7 °C 23.5 °F /  -4.7 °C 29.94 in /  1013.8 hPa WSW 8.0 mph /  12.9 km/h 11.5 mph /  18.5 km/h 44 % 0.00 in /  0 mm
15:17 44.0 °F /  6.7 °C 24.0 °F /  -4.4 °C 29.95 in /  1014.1 hPa SSW 5.3 mph /  8.5 km/h 12.7 mph /  20.4 km/h 45 % 0.00 in /  0 mm
15:22 43.9 °F /  6.6 °C 24.4 °F /  -4.2 °C 29.95 in /  1014.1 hPa WNW 8.3 mph /  13.4 km/h 19.6 mph /  31.5 km/h 46 % 0.00 in /  0 mm
15:27 43.8 °F /  6.6 °C 23.3 °F /  -4.8 °C 29.95 in /  1014.1 hPa WNW 6.5 mph /  10.5 km/h 11.5 mph /  18.5 km/h 44 % 0.00 in /  0 mm
15:32 43.7 °F /  6.5 °C 23.2 °F /  -4.9 °C 29.95 in /  1014.1 hPa WSW 4.5 mph /  7.2 km/h 10.4 mph /  16.7 km/h 44 % 0.00 in /  0 mm
15:37 43.6 °F /  6.4 °C 24.2 °F /  -4.3 °C 29.95 in /  1014.1 hPa WNW 7.0 mph /  11.3 km/h 10.0 mph /  16.1 km/h 46 % 0.00 in /  0 mm
15:42 43.6 °F /  6.4 °C 23.6 °F /  -4.7 °C 29.95 in /  1014.1 hPa WSW 3.6 mph /  5.8 km/h 7.0 mph /  11.3 km/h 45 % 0.00 in /  0 mm
15:43 43.5 °F /  6.4 °C 23.5 °F /  -4.7 °C 29.95 in /  1014.1 hPa West 7.6 mph /  12.2 km/h 13.0 mph /  20.9 km/h 45 % 0.00 in /  0 mm
15:48 43.4 °F /  6.3 °C 24.0 °F /  -4.4 °C 29.95 in /  1014.1 hPa West 9.9 mph /  15.9 km/h 15.0 mph /  24.1 km/h 46 % 0.00 in /  0 mm
15:53 43.4 °F /  6.3 °C 23.4 °F /  -4.8 °C 29.95 in /  1014.1 hPa WSW 5.6 mph /  9 km/h 13.8 mph /  22.2 km/h 45 % 0.00 in /  0 mm
15:58 43.3 °F /  6.3 °C 23.9 °F /  -4.5 °C 29.95 in /  1014.1 hPa West 4.1 mph /  6.6 km/h 6.9 mph /  11.1 km/h 46 % 0.00 in /  0 mm
16:03 43.3 °F /  6.3 °C 24.4 °F /  -4.2 °C 29.95 in /  1014.1 hPa WSW 5.0 mph /  8 km/h 11.5 mph /  18.5 km/h 47 % 0.00 in /  0 mm
16:08 43.2 °F /  6.2 °C 24.3 °F /  -4.3 °C 29.95 in /  1014.1 hPa WNW 4.3 mph /  6.9 km/h 11.5 mph /  18.5 km/h 47 % 0.00 in /  0 mm
16:13 43.1 °F /  6.2 °C 24.2 °F /  -4.3 °C 29.95 in /  1014.1 hPa WNW 6.6 mph /  10.6 km/h 8.1 mph /  13 km/h 47 % 0.00 in /  0 mm
16:18 43.1 °F /  6.2 °C 24.2 °F /  -4.3 °C 29.95 in /  1014.1 hPa SW 5.7 mph /  9.2 km/h 10.0 mph /  16.1 km/h 47 % 0.00 in /  0 mm
16:24 43.0 °F /  6.1 °C 24.1 °F /  -4.4 °C 29.95 in /  1014.1 hPa WSW 3.7 mph /  6 km/h 10.4 mph /  16.7 km/h 47 % 0.00 in /  0 mm
16:29 42.9 °F /  6.1 °C 24.5 °F /  -4.2 °C 29.95 in /  1014.1 hPa WSW 2.8 mph /  4.5 km/h 7.0 mph /  11.3 km/h 48 % 0.00 in /  0 mm
16:34 42.8 °F /  6 °C 24.4 °F /  -4.2 °C 29.95 in /  1014.1 hPa WSW 1.8 mph /  2.9 km/h 5.8 mph /  9.3 km/h 48 % 0.00 in /  0 mm
16:39 42.7 °F /  5.9 °C 24.4 °F /  -4.2 °C 29.96 in /  1014.4 hPa WSW 2.4 mph /  3.9 km/h 11.5 mph /  18.5 km/h 48 % 0.00 in /  0 mm
16:44 42.7 °F /  5.9 °C 23.8 °F /  -4.6 °C 29.96 in /  1014.4 hPa West 2.5 mph /  4 km/h 9.2 mph /  14.8 km/h 47 % 0.00 in /  0 mm
16:49 42.6 °F /  5.9 °C 24.3 °F /  -4.3 °C 29.96 in /  1014.4 hPa WNW 3.8 mph /  6.1 km/h 6.0 mph /  9.7 km/h 48 % 0.00 in /  0 mm
16:54 42.6 °F /  5.9 °C 24.3 °F /  -4.3 °C 29.96 in /  1014.4 hPa SW 5.3 mph /  8.5 km/h 7.0 mph /  11.3 km/h 48 % 0.00 in /  0 mm
16:59 42.6 °F /  5.9 °C 24.3 °F /  -4.3 °C 29.96 in /  1014.4 hPa SW 2.2 mph /  3.5 km/h 4.6 mph /  7.4 km/h 48 % 0.00 in /  0 mm
17:04 42.5 °F /  5.8 °C 23.7 °F /  -4.6 °C 29.96 in /  1014.4 hPa SW 6.7 mph /  10.8 km/h 10.4 mph /  16.7 km/h 47 % 0.00 in /  0 mm
17:09 42.5 °F /  5.8 °C 24.2 °F /  -4.3 °C 29.96 in /  1014.4 hPa West 5.4 mph /  8.7 km/h 8.1 mph /  13 km/h 48 % 0.00 in /  0 mm
17:14 42.5 °F /  5.8 °C 24.2 °F /  -4.3 °C 29.96 in /  1014.4 hPa SW 6.1 mph /  9.8 km/h 11.5 mph /  18.5 km/h 48 % 0.00 in /  0 mm
17:19 42.4 °F /  5.8 °C 24.1 °F /  -4.4 °C 29.96 in /  1014.4 hPa SW 2.8 mph /  4.5 km/h 5.8 mph /  9.3 km/h 48 % 0.00 in /  0 mm
17:24 42.4 °F /  5.8 °C 23.6 °F /  -4.7 °C 29.96 in /  1014.4 hPa SSW 2.9 mph /  4.7 km/h 4.0 mph /  6.4 km/h 47 % 0.00 in /  0 mm
17:29 42.3 °F /  5.7 °C 23.5 °F /  -4.7 °C 29.95 in /  1014.1 hPa SW 3.6 mph /  5.8 km/h 4.6 mph /  7.4 km/h 47 % 0.00 in /  0 mm
17:34 42.2 °F /  5.7 °C 23.4 °F /  -4.8 °C 29.95 in /  1014.1 hPa SSW 2.6 mph /  4.2 km/h 4.0 mph /  6.4 km/h 47 % 0.00 in /  0 mm
17:39 42.0 °F /  5.6 °C 23.2 °F /  -4.9 °C 29.96 in /  1014.4 hPa SSW 0.2 mph /  0.3 km/h 2.3 mph /  3.7 km/h 47 % 0.00 in /  0 mm
17:44 41.9 °F /  5.5 °C 23.1 °F /  -4.9 °C 29.96 in /  1014.4 hPa WSW 2.9 mph /  4.7 km/h 4.6 mph /  7.4 km/h 47 % 0.00 in /  0 mm
17:49 41.7 °F /  5.4 °C 22.9 °F /  -5.1 °C 29.96 in /  1014.4 hPa South 1.4 mph /  2.3 km/h 3.5 mph /  5.6 km/h 47 % 0.00 in /  0 mm
17:54 41.4 °F /  5.2 °C 22.7 °F /  -5.2 °C 29.96 in /  1014.4 hPa SW 2.5 mph /  4 km/h 5.8 mph /  9.3 km/h 47 % 0.00 in /  0 mm
17:59 41.2 °F /  5.1 °C 23.0 °F /  -5 °C 29.96 in /  1014.4 hPa SW 2.4 mph /  3.9 km/h 3.0 mph /  4.8 km/h 48 % 0.00 in /  0 mm
18:04 41.0 °F /  5 °C 22.8 °F /  -5.1 °C 29.96 in /  1014.4 hPa South 3.8 mph /  6.1 km/h 4.6 mph /  7.4 km/h 48 % 0.00 in /  0 mm
18:09 40.9 °F /  4.9 °C 22.7 °F /  -5.2 °C 29.96 in /  1014.4 hPa SSW 2.6 mph /  4.2 km/h 3.5 mph /  5.6 km/h 48 % 0.00 in /  0 mm
18:15 40.7 °F /  4.8 °C 23.0 °F /  -5 °C 29.96 in /  1014.4 hPa SW 0.9 mph /  1.4 km/h 4.6 mph /  7.4 km/h 49 % 0.00 in /  0 mm
18:20 40.5 °F /  4.7 °C 22.8 °F /  -5.1 °C 29.97 in /  1014.8 hPa SW 1.0 mph /  1.6 km/h 3.5 mph /  5.6 km/h 49 % 0.00 in /  0 mm
18:25 40.2 °F /  4.6 °C 22.5 °F /  -5.3 °C 29.97 in /  1014.8 hPa SW 1.6 mph /  2.6 km/h 3.5 mph /  5.6 km/h 49 % 0.00 in /  0 mm
18:30 40.1 °F /  4.5 °C 22.9 °F /  -5.1 °C 29.97 in /  1014.8 hPa WSW 2.0 mph /  3.2 km/h 4.6 mph /  7.4 km/h 50 % 0.00 in /  0 mm
18:35 39.8 °F /  4.3 °C 23.1 °F /  -4.9 °C 29.97 in /  1014.8 hPa SW 2.5 mph /  4 km/h 4.0 mph /  6.4 km/h 51 % 0.00 in /  0 mm
18:40 39.6 °F /  4.2 °C 22.9 °F /  -5.1 °C 29.98 in /  1015.1 hPa SSW 3.2 mph /  5.1 km/h 9.2 mph /  14.8 km/h 51 % 0.00 in /  0 mm
18:50 39.4 °F /  4.1 °C 23.7 °F /  -4.6 °C 29.98 in /  1015.1 hPa WSW 4.2 mph /  6.8 km/h 5.8 mph /  9.3 km/h 53 % 0.00 in /  0 mm
18:55 39.4 °F /  4.1 °C 23.7 °F /  -4.6 °C 29.98 in /  1015.1 hPa SSW 3.5 mph /  5.6 km/h 6.9 mph /  11.1 km/h 53 % 0.00 in /  0 mm
19:00 39.3 °F /  4.1 °C 24.0 °F /  -4.4 °C 29.99 in /  1015.5 hPa SSW 2.2 mph /  3.5 km/h 4.6 mph /  7.4 km/h 54 % 0.00 in /  0 mm
19:05 39.3 °F /  4.1 °C 24.0 °F /  -4.4 °C 29.99 in /  1015.5 hPa South 4.6 mph /  7.4 km/h 6.9 mph /  11.1 km/h 54 % 0.00 in /  0 mm
19:10 39.3 °F /  4.1 °C 24.5 °F /  -4.2 °C 29.99 in /  1015.5 hPa SSW 4.0 mph /  6.4 km/h 6.0 mph /  9.7 km/h 55 % 0.00 in /  0 mm
19:15 39.3 °F /  4.1 °C 24.5 °F /  -4.2 °C 29.99 in /  1015.5 hPa SSW 2.6 mph /  4.2 km/h 6.9 mph /  11.1 km/h 55 % 0.00 in /  0 mm
19:20 39.3 °F /  4.1 °C 24.5 °F /  -4.2 °C 30.00 in /  1015.8 hPa SSW 2.6 mph /  4.2 km/h 5.8 mph /  9.3 km/h 55 % 0.00 in /  0 mm
19:25 39.3 °F /  4.1 °C 24.5 °F /  -4.2 °C 30.00 in /  1015.8 hPa SW 2.0 mph /  3.2 km/h 8.0 mph /  12.9 km/h 55 % 0.00 in /  0 mm
19:35 39.3 °F /  4.1 °C 24.5 °F /  -4.2 °C 29.99 in /  1015.5 hPa SW 3.9 mph /  6.3 km/h 4.6 mph /  7.4 km/h 55 % 0.00 in /  0 mm
19:40 39.3 °F /  4.1 °C 24.5 °F /  -4.2 °C 29.99 in /  1015.5 hPa SW 1.6 mph /  2.6 km/h 3.5 mph /  5.6 km/h 55 % 0.00 in /  0 mm
19:45 39.3 °F /  4.1 °C 24.5 °F /  -4.2 °C 29.99 in /  1015.5 hPa SW 0.7 mph /  1.1 km/h 3.5 mph /  5.6 km/h 55 % 0.00 in /  0 mm
19:50 39.2 °F /  4 °C 24.4 °F /  -4.2 °C 30.00 in /  1015.8 hPa SW 1.6 mph /  2.6 km/h 5.8 mph /  9.3 km/h 55 % 0.00 in /  0 mm
19:56 39.1 °F /  3.9 °C 24.7 °F /  -4.1 °C 30.00 in /  1015.8 hPa SSW 2.0 mph /  3.2 km/h 7.0 mph /  11.3 km/h 56 % 0.00 in /  0 mm
20:06 39.0 °F /  3.9 °C 24.6 °F /  -4.1 °C 30.00 in /  1015.8 hPa South 2.7 mph /  4.3 km/h 5.8 mph /  9.3 km/h 56 % 0.00 in /  0 mm
20:11 39.0 °F /  3.9 °C 24.6 °F /  -4.1 °C 30.00 in /  1015.8 hPa WSW 1.7 mph /  2.7 km/h 6.9 mph /  11.1 km/h 56 % 0.00 in /  0 mm
20:16 39.0 °F /  3.9 °C 24.6 °F /  -4.1 °C 30.00 in /  1015.8 hPa South 2.5 mph /  4 km/h 3.5 mph /  5.6 km/h 56 % 0.00 in /  0 mm
20:21 39.0 °F /  3.9 °C 24.6 °F /  -4.1 °C 30.00 in /  1015.8 hPa SSW 1.9 mph /  3.1 km/h 3.5 mph /  5.6 km/h 56 % 0.00 in /  0 mm
20:26 39.0 °F /  3.9 °C 24.6 °F /  -4.1 °C 30.00 in /  1015.8 hPa SW 1.9 mph /  3.1 km/h 4.6 mph /  7.4 km/h 56 % 0.00 in /  0 mm
20:31 39.0 °F /  3.9 °C 24.6 °F /  -4.1 °C 30.00 in /  1015.8 hPa SW 2.4 mph /  3.9 km/h 4.6 mph /  7.4 km/h 56 % 0.00 in /  0 mm
20:36 39.0 °F /  3.9 °C 24.6 °F /  -4.1 °C 30.00 in /  1015.8 hPa SSW 3.4 mph /  5.5 km/h 9.2 mph /  14.8 km/h 56 % 0.00 in /  0 mm
20:39 39.0 °F /  3.9 °C 24.6 °F /  -4.1 °C 30.00 in /  1015.8 hPa SW 3.5 mph /  5.6 km/h 6.9 mph /  11.1 km/h 56 % 0.00 in /  0 mm
20:44 39.0 °F /  3.9 °C 24.6 °F /  -4.1 °C 30.00 in /  1015.8 hPa SW 2.2 mph /  3.5 km/h 3.5 mph /  5.6 km/h 56 % 0.00 in /  0 mm
20:49 39.0 °F /  3.9 °C 25.0 °F /  -3.9 °C 30.01 in /  1016.1 hPa SSW 1.2 mph /  1.9 km/h 3.5 mph /  5.6 km/h 57 % 0.00 in /  0 mm
20:54 39.1 °F /  3.9 °C 25.1 °F /  -3.8 °C 30.01 in /  1016.1 hPa SSW 4.0 mph /  6.4 km/h 6.9 mph /  11.1 km/h 57 % 0.00 in /  0 mm
20:59 39.1 °F /  3.9 °C 25.1 °F /  -3.8 °C 30.00 in /  1015.8 hPa SW 1.8 mph /  2.9 km/h 5.8 mph /  9.3 km/h 57 % 0.00 in /  0 mm
21:04 39.3 °F /  4.1 °C 25.3 °F /  -3.7 °C 30.00 in /  1015.8 hPa South 3.3 mph /  5.3 km/h 5.8 mph /  9.3 km/h 57 % 0.00 in /  0 mm
21:09 39.5 °F /  4.2 °C 25.5 °F /  -3.6 °C 30.00 in /  1015.8 hPa South 2.0 mph /  3.2 km/h 4.6 mph /  7.4 km/h 57 % 0.00 in /  0 mm
21:14 39.6 °F /  4.2 °C 25.2 °F /  -3.8 °C 30.00 in /  1015.8 hPa SSW 5.6 mph /  9 km/h 10.4 mph /  16.7 km/h 56 % 0.00 in /  0 mm
21:19 39.8 °F /  4.3 °C 25.4 °F /  -3.7 °C 30.00 in /  1015.8 hPa SSW 4.7 mph /  7.6 km/h 7.0 mph /  11.3 km/h 56 % 0.00 in /  0 mm
21:24 40.0 °F /  4.4 °C 25.6 °F /  -3.6 °C 30.00 in /  1015.8 hPa WSW 3.2 mph /  5.1 km/h 5.8 mph /  9.3 km/h 56 % 0.00 in /  0 mm
21:29 40.1 °F /  4.5 °C 25.2 °F /  -3.8 °C 30.00 in /  1015.8 hPa SW 5.9 mph /  9.5 km/h 8.1 mph /  13 km/h 55 % 0.00 in /  0 mm
21:34 40.2 °F /  4.6 °C 25.7 °F /  -3.5 °C 30.01 in /  1016.1 hPa South 4.0 mph /  6.4 km/h 6.0 mph /  9.7 km/h 56 % 0.00 in /  0 mm
21:39 40.2 °F /  4.6 °C 25.7 °F /  -3.5 °C 30.01 in /  1016.1 hPa SSW 2.0 mph /  3.2 km/h 4.6 mph /  7.4 km/h 56 % 0.00 in /  0 mm
21:44 40.2 °F /  4.6 °C 25.7 °F /  -3.5 °C 30.01 in /  1016.1 hPa SSW 3.0 mph /  4.8 km/h 5.8 mph /  9.3 km/h 56 % 0.00 in /  0 mm
21:50 40.3 °F /  4.6 °C 25.8 °F /  -3.4 °C 30.01 in /  1016.1 hPa WSW 1.6 mph /  2.6 km/h 6.0 mph /  9.7 km/h 56 % 0.00 in /  0 mm
21:55 40.3 °F /  4.6 °C 25.8 °F /  -3.4 °C 30.01 in /  1016.1 hPa SW 2.3 mph /  3.7 km/h 2.3 mph /  3.7 km/h 56 % 0.00 in /  0 mm
22:00 40.4 °F /  4.7 °C 25.9 °F /  -3.4 °C 30.01 in /  1016.1 hPa SW 4.4 mph /  7.1 km/h 8.1 mph /  13 km/h 56 % 0.00 in /  0 mm
22:05 40.5 °F /  4.7 °C 26.0 °F /  -3.3 °C 30.02 in /  1016.5 hPa SSW 2.2 mph /  3.5 km/h 4.6 mph /  7.4 km/h 56 % 0.00 in /  0 mm
22:10 40.6 °F /  4.8 °C 26.5 °F /  -3.1 °C 30.02 in /  1016.5 hPa WSW 0.9 mph /  1.4 km/h 4.6 mph /  7.4 km/h 57 % 0.00 in /  0 mm
22:15 40.7 °F /  4.8 °C 26.6 °F /  -3 °C 30.02 in /  1016.5 hPa WSW 4.1 mph /  6.6 km/h 6.9 mph /  11.1 km/h 57 % 0.00 in /  0 mm
22:20 40.9 °F /  4.9 °C 27.2 °F /  -2.7 °C 30.01 in /  1016.1 hPa WNW 3.2 mph /  5.1 km/h 7.0 mph /  11.3 km/h 58 % 0.00 in /  0 mm
22:23 40.9 °F /  4.9 °C 27.7 °F /  -2.4 °C 29.80 in /  1009 hPa SW 6.0 mph /  9.7 km/h 12.0 mph /  19.3 km/h 59 % 0.00 in /  0 mm
22:24 41.0 °F /  5 °C 27.8 °F /  -2.3 °C 30.01 in /  1016.1 hPa West 7.9 mph /  12.7 km/h 11.5 mph /  18.5 km/h 59 % 0.00 in /  0 mm
22:29 41.2 °F /  5.1 °C 27.9 °F /  -2.3 °C 30.01 in /  1016.1 hPa WNW 6.5 mph /  10.5 km/h 11.5 mph /  18.5 km/h 59 % 0.00 in /  0 mm
22:34 41.4 °F /  5.2 °C 28.1 °F /  -2.2 °C 30.01 in /  1016.1 hPa West 8.4 mph /  13.5 km/h 10.4 mph /  16.7 km/h 59 % 0.00 in /  0 mm
22:39 41.6 °F /  5.3 °C 28.3 °F /  -2.1 °C 30.01 in /  1016.1 hPa SW 2.2 mph /  3.5 km/h 6.9 mph /  11.1 km/h 59 % 0.00 in /  0 mm
22:44 41.7 °F /  5.4 °C 28.8 °F /  -1.8 °C 30.01 in /  1016.1 hPa West 1.1 mph /  1.8 km/h 4.6 mph /  7.4 km/h 60 % 0.00 in /  0 mm
22:49 41.7 °F /  5.4 °C 28.4 °F /  -2 °C 30.02 in /  1016.5 hPa WNW 6.5 mph /  10.5 km/h 13.8 mph /  22.2 km/h 59 % 0.00 in /  0 mm
22:54 41.7 °F /  5.4 °C 28.8 °F /  -1.8 °C 30.02 in /  1016.5 hPa NW 5.5 mph /  8.9 km/h 11.5 mph /  18.5 km/h 60 % 0.00 in /  0 mm
22:59 41.8 °F /  5.4 °C 28.9 °F /  -1.7 °C 30.02 in /  1016.5 hPa WNW 6.2 mph /  10 km/h 18.4 mph /  29.6 km/h 60 % 0.00 in /  0 mm
23:04 41.7 °F /  5.4 °C 29.2 °F /  -1.6 °C 30.02 in /  1016.5 hPa West 9.0 mph /  14.5 km/h 13.8 mph /  22.2 km/h 61 % 0.00 in /  0 mm
23:09 41.6 °F /  5.3 °C 29.1 °F /  -1.6 °C 30.02 in /  1016.5 hPa SW 2.9 mph /  4.7 km/h 6.0 mph /  9.7 km/h 61 % 0.00 in /  0 mm
23:19 41.5 °F /  5.3 °C 29.8 °F /  -1.2 °C 30.03 in /  1016.8 hPa NW 5.2 mph /  8.4 km/h 10.4 mph /  16.7 km/h 63 % 0.00 in /  0 mm
23:24 41.5 °F /  5.3 °C 29.8 °F /  -1.2 °C 30.03 in /  1016.8 hPa West 6.1 mph /  9.8 km/h 12.0 mph /  19.3 km/h 63 % 0.00 in /  0 mm
23:29 41.4 °F /  5.2 °C 29.7 °F /  -1.3 °C 30.02 in /  1016.5 hPa WSW 4.5 mph /  7.2 km/h 6.0 mph /  9.7 km/h 63 % 0.00 in /  0 mm
23:34 41.3 °F /  5.2 °C 30.0 °F /  -1.1 °C 30.02 in /  1016.5 hPa WSW 6.3 mph /  10.1 km/h 14.0 mph /  22.5 km/h 64 % 0.00 in /  0 mm
23:39 41.3 °F /  5.2 °C 30.0 °F /  -1.1 °C 30.02 in /  1016.5 hPa West 3.2 mph /  5.1 km/h 8.1 mph /  13 km/h 64 % 0.00 in /  0 mm
23:44 41.2 °F /  5.1 °C 29.9 °F /  -1.2 °C 30.02 in /  1016.5 hPa SSW 6.4 mph /  10.3 km/h 9.2 mph /  14.8 km/h 64 % 0.00 in /  0 mm
23:49 41.1 °F /  5.1 °C 29.8 °F /  -1.2 °C 30.02 in /  1016.5 hPa WSW 2.9 mph /  4.7 km/h 11.0 mph /  17.7 km/h 64 % 0.00 in /  0 mm
23:54 41.0 °F /  5 °C 29.7 °F /  -1.3 °C 30.02 in /  1016.5 hPa WSW 7.6 mph /  12.2 km/h 11.5 mph /  18.5 km/h 64 % 0.00 in /  0 mm
23:59 40.9 °F /  4.9 °C 29.7 °F /  -1.3 °C 30.02 in /  1016.5 hPa West 4.4 mph /  7.1 km/h 6.9 mph /  11.1 km/h 64 % 0.00 in /  0 mm
Crab Meadow Weather
Compliments of Weather Underground - 3 mb

Script developed by  Jim McMurry - jmcmurry@mwt.net Adapted for the template by  Wim van der Kuil - Leuven-Template.eu

Weather Terms: Freeze Warning - Widespread temperatures at or below 32°F during the growing season. A freeze may occur with or without frost. A hard freeze occurs with temperatures below 28°F. Growing season is based on the average date of first and last freeze at O'Hare. It begins April 17 and ends October 27.